createdAt,value
2023-01-30T00:00:10.301Z,-0.40
2023-01-30T00:02:38.749Z,-0.17
2023-01-30T00:05:08.743Z,-0.32
2023-01-30T00:07:37.147Z,-0.34
2023-01-30T00:10:10.734Z,-0.47
2023-01-30T00:12:40.698Z,-0.65
2023-01-30T00:15:09.946Z,-0.83
2023-01-30T00:17:41.220Z,-0.57
2023-01-30T00:20:11.322Z,-0.44
2023-01-30T00:22:44.214Z,-0.63
2023-01-30T00:25:21.343Z,-0.57
2023-01-30T00:27:51.201Z,-0.53
2023-01-30T00:30:20.071Z,-0.52
2023-01-30T00:32:48.629Z,-0.49
2023-01-30T00:35:17.302Z,-0.79
2023-01-30T00:37:47.535Z,-1.07
2023-01-30T00:40:17.307Z,-0.53
2023-01-30T00:43:08.878Z,-0.58
2023-01-30T00:45:59.719Z,-0.27
2023-01-30T00:48:29.128Z,-0.24
2023-01-30T00:50:58.133Z,0.10
2023-01-30T00:53:26.701Z,-0.06
2023-01-30T00:55:56.697Z,-0.94
2023-01-30T00:58:26.257Z,-0.67
2023-01-30T01:00:59.205Z,-0.44
2023-01-30T01:03:27.818Z,-0.66
2023-01-30T01:05:56.198Z,-1.33
2023-01-30T01:08:24.841Z,-1.01
2023-01-30T01:10:53.274Z,-1.02
2023-01-30T01:13:21.564Z,-0.83
2023-01-30T01:15:51.373Z,-0.93
2023-01-30T01:18:21.324Z,-0.77
2023-01-30T01:20:49.884Z,-0.57
2023-01-30T01:23:18.271Z,-0.51
2023-01-30T01:25:46.701Z,-0.73
2023-01-30T01:28:15.214Z,-0.85
2023-01-30T01:30:46.182Z,-0.67
2023-01-30T01:33:15.605Z,-1.12
2023-01-30T01:35:47.457Z,-1.00
2023-01-30T01:38:17.520Z,-0.35
2023-01-30T01:41:06.500Z,-0.86
2023-01-30T01:43:39.313Z,-1.14
2023-01-30T01:46:22.662Z,-0.85
2023-01-30T01:48:54.991Z,-0.85
2023-01-30T01:51:30.941Z,-0.51
2023-01-30T01:54:03.937Z,-0.92
2023-01-30T01:56:35.629Z,-0.69
2023-01-30T01:59:10.137Z,-0.53
2023-01-30T02:01:38.964Z,-0.79
2023-01-30T02:04:10.453Z,-0.44
2023-01-30T02:06:42.913Z,-0.52
2023-01-30T02:09:16.878Z,-0.84
2023-01-30T02:11:52.351Z,-0.71
2023-01-30T02:14:22.264Z,-0.26
2023-01-30T02:16:52.673Z,-0.26
2023-01-30T02:19:25.591Z,-0.40
2023-01-30T02:22:25.814Z,-0.54
2023-01-30T02:25:24.016Z,-0.59
2023-01-30T02:28:31.564Z,-0.85
2023-01-30T02:31:35.476Z,-0.79
2023-01-30T02:34:17.775Z,-0.85
2023-01-30T02:36:58.608Z,-0.79
2023-01-30T02:39:39.432Z,-1.10
2023-01-30T02:42:21.075Z,-1.17
2023-01-30T02:44:56.821Z,-1.06
2023-01-30T02:47:30.401Z,-0.79
2023-01-30T02:50:08.282Z,-0.75
2023-01-30T02:52:37.896Z,-0.74
2023-01-30T02:55:11.078Z,-0.87
2023-01-30T02:57:41.240Z,-0.14
2023-01-30T03:00:10.132Z,-0.05
2023-01-30T03:03:11.032Z,-0.54
2023-01-30T03:06:07.167Z,0.10
2023-01-30T03:08:46.391Z,-0.59
2023-01-30T03:11:15.012Z,-0.29
2023-01-30T03:13:52.220Z,-0.24
2023-01-30T03:16:25.368Z,-0.90
2023-01-30T03:18:54.116Z,-0.67
2023-01-30T03:21:23.706Z,-0.90
2023-01-30T03:23:54.139Z,-0.80
2023-01-30T03:26:24.985Z,-0.74
2023-01-30T03:28:54.571Z,-0.90
2023-01-30T03:31:23.295Z,-0.44
2023-01-30T03:33:52.374Z,-0.45
2023-01-30T03:36:23.006Z,-0.56
2023-01-30T03:38:54.187Z,-0.75
2023-01-30T03:41:24.528Z,-0.49
2023-01-30T03:43:52.784Z,-0.55
2023-01-30T03:46:21.808Z,-0.49
2023-01-30T03:48:51.421Z,0.10
2023-01-30T03:51:19.983Z,-0.04
2023-01-30T03:53:48.677Z,-0.47
2023-01-30T03:56:18.623Z,-0.13
2023-01-30T03:58:49.567Z,-0.32
2023-01-30T04:01:21.653Z,-0.28
2023-01-30T04:03:50.318Z,-0.51
2023-01-30T04:06:18.826Z,-0.13
2023-01-30T04:08:47.090Z,-0.20
2023-01-30T04:11:30.367Z,-0.99
2023-01-30T04:13:59.162Z,-0.65
2023-01-30T04:16:30.716Z,-0.78
2023-01-30T04:19:17.897Z,-0.10
2023-01-30T04:21:46.832Z,-0.69
2023-01-30T04:24:15.245Z,-0.96
2023-01-30T04:26:45.146Z,-0.41
2023-01-30T04:29:13.842Z,-0.87
2023-01-30T04:31:43.887Z,-0.83
2023-01-30T04:34:34.258Z,-0.25
2023-01-30T04:37:02.628Z,-0.62
2023-01-30T04:39:32.099Z,-1.05
2023-01-30T04:42:01.901Z,-0.80
2023-01-30T04:44:35.011Z,-0.97
2023-01-30T04:47:14.058Z,-0.45
2023-01-30T04:49:42.735Z,-0.41
2023-01-30T04:52:13.725Z,-1.04
2023-01-30T04:54:42.211Z,-0.84
2023-01-30T04:57:12.044Z,-1.06
2023-01-30T04:59:40.849Z,-0.62
2023-01-30T05:02:12.288Z,-0.72
2023-01-30T05:04:40.537Z,-0.98
2023-01-30T05:07:08.984Z,-1.15
2023-01-30T05:09:37.458Z,-0.40
2023-01-30T05:12:06.392Z,-0.74
2023-01-30T05:14:36.272Z,-0.32
2023-01-30T05:17:04.811Z,-0.89
2023-01-30T05:19:33.247Z,-0.90
2023-01-30T05:22:03.320Z,-0.29
2023-01-30T05:24:31.803Z,-0.67
2023-01-30T05:27:00.317Z,-0.94
2023-01-30T05:29:28.881Z,-0.80
2023-01-30T05:31:58.427Z,-0.71
2023-01-30T05:34:27.292Z,-1.03
2023-01-30T05:36:55.702Z,-0.49
2023-01-30T05:39:24.156Z,-0.37
2023-01-30T05:41:52.596Z,-0.74
2023-01-30T05:44:21.001Z,-0.29
2023-01-30T05:46:49.270Z,-0.67
2023-01-30T05:49:19.170Z,-0.51
2023-01-30T05:51:48.506Z,0.17
2023-01-30T05:54:18.539Z,-0.59
2023-01-30T05:56:49.875Z,-0.73
2023-01-30T05:59:19.760Z,-0.89
2023-01-30T06:01:48.368Z,-0.21
2023-01-30T06:04:18.497Z,-0.78
2023-01-30T06:06:46.887Z,-0.70
2023-01-30T06:09:15.255Z,0.02
2023-01-30T06:11:43.654Z,-1.01
2023-01-30T06:14:12.066Z,-0.35
2023-01-30T06:16:40.506Z,-0.28
2023-01-30T06:19:09.463Z,0.22
2023-01-30T06:21:39.221Z,-0.23
2023-01-30T06:24:08.319Z,-0.50
2023-01-30T06:26:36.727Z,-0.36
2023-01-30T06:29:05.260Z,-0.35
2023-01-30T06:31:33.788Z,0.15
2023-01-30T06:34:02.025Z,-0.71
2023-01-30T06:36:30.432Z,-0.28
2023-01-30T06:39:00.287Z,-0.62
2023-01-30T06:41:28.818Z,-0.23
2023-01-30T06:43:57.229Z,-0.23
2023-01-30T06:46:25.786Z,-1.02
2023-01-30T06:48:53.967Z,-0.24
2023-01-30T06:51:22.784Z,0.02
2023-01-30T06:53:53.266Z,0.21
2023-01-30T06:56:23.206Z,-0.53
2023-01-30T06:58:51.756Z,-0.18
2023-01-30T07:01:22.824Z,-0.52
2023-01-30T07:03:51.778Z,-0.58
2023-01-30T07:06:20.262Z,-0.51
2023-01-30T07:08:48.911Z,-0.01
2023-01-30T07:11:17.163Z,0.07
2023-01-30T07:13:47.048Z,-0.10
2023-01-30T07:16:15.632Z,-0.41
2023-01-30T07:18:44.144Z,0.21
2023-01-30T07:21:12.654Z,0.08
2023-01-30T07:23:40.876Z,-0.23
2023-01-30T07:26:10.808Z,-0.62
2023-01-30T07:28:39.315Z,-0.15
2023-01-30T07:31:11.570Z,-0.43
2023-01-30T07:33:40.817Z,-0.26
2023-01-30T07:36:12.385Z,-0.40
2023-01-30T07:38:42.215Z,-0.36
2023-01-30T07:41:13.401Z,-0.47
2023-01-30T07:43:42.100Z,-0.13
2023-01-30T07:46:12.663Z,0.68
2023-01-30T07:48:41.261Z,-0.33
2023-01-30T07:51:10.125Z,-0.04
2023-01-30T07:53:41.930Z,-0.07
2023-01-30T07:56:14.263Z,-0.50
2023-01-30T07:58:49.292Z,0.30
2023-01-30T08:01:20.563Z,0.37
2023-01-30T08:03:50.305Z,0.37
2023-01-30T08:06:31.174Z,-0.04
2023-01-30T08:09:03.403Z,0.14
2023-01-30T08:11:31.992Z,0.06
2023-01-30T08:14:01.970Z,0.64
2023-01-30T08:16:43.315Z,0.74
2023-01-30T08:19:15.684Z,-0.26
2023-01-30T08:21:56.126Z,-0.32
2023-01-30T08:24:30.362Z,-0.28
2023-01-30T08:27:00.963Z,-0.18
2023-01-30T08:29:35.459Z,-0.36
2023-01-30T08:32:09.042Z,-0.06
2023-01-30T08:34:37.551Z,0.20
2023-01-30T08:37:09.780Z,0.39
2023-01-30T08:39:40.147Z,0.48
2023-01-30T08:42:13.650Z,0.11
2023-01-30T08:44:43.114Z,0.56
2023-01-30T08:47:13.025Z,0.44
2023-01-30T08:49:41.541Z,0.20
2023-01-30T08:52:09.999Z,0.43
2023-01-30T08:54:38.507Z,0.32
2023-01-30T08:57:07.231Z,0.48
2023-01-30T08:59:35.897Z,0.26
2023-01-30T09:02:04.905Z,0.22
2023-01-30T09:04:34.854Z,0.82
2023-01-30T09:07:10.923Z,-0.04
2023-01-30T09:09:41.939Z,-0.12
2023-01-30T09:12:10.551Z,0.72
2023-01-30T09:14:38.977Z,0.12
2023-01-30T09:17:07.551Z,1.01
2023-01-30T09:19:37.388Z,0.77
2023-01-30T09:22:07.492Z,0.78
2023-01-30T09:24:36.286Z,1.02
2023-01-30T09:27:06.650Z,0.60
2023-01-30T09:29:35.140Z,0.29
2023-01-30T09:32:06.762Z,0.75
2023-01-30T09:34:36.772Z,0.55
2023-01-30T09:37:05.336Z,0.07
2023-01-30T09:39:33.792Z,0.38
2023-01-30T09:42:30.426Z,0.55
2023-01-30T09:45:14.707Z,0.75
2023-01-30T09:47:51.108Z,0.73
2023-01-30T09:50:47.343Z,1.45
2023-01-30T09:53:24.043Z,1.43
2023-01-30T09:55:53.551Z,0.98
2023-01-30T09:58:24.497Z,0.55
2023-01-30T10:00:58.221Z,1.41
2023-01-30T10:03:31.351Z,1.25
2023-01-30T10:06:06.781Z,-0.02
2023-01-30T10:08:58.365Z,1.44
2023-01-30T10:11:41.731Z,1.10
2023-01-30T10:14:26.385Z,1.77
2023-01-30T10:17:04.507Z,0.89
2023-01-30T10:19:56.427Z,0.17
2023-01-30T10:22:38.236Z,0.50
2023-01-30T10:25:24.112Z,0.54
2023-01-30T10:27:57.853Z,0.50
2023-01-30T10:30:27.060Z,0.80
2023-01-30T10:33:00.222Z,0.47
2023-01-30T10:35:33.515Z,0.74
2023-01-30T10:38:12.826Z,0.60
2023-01-30T10:40:46.228Z,0.72
2023-01-30T10:43:27.250Z,0.84
2023-01-30T10:46:07.560Z,1.12
2023-01-30T10:48:53.655Z,0.28
2023-01-30T10:51:34.223Z,0.67
2023-01-30T10:54:13.717Z,0.64
2023-01-30T10:56:48.918Z,0.78
2023-01-30T10:59:24.987Z,1.10
2023-01-30T11:02:01.119Z,0.43
2023-01-30T11:04:38.169Z,1.09
2023-01-30T11:07:07.277Z,1.84
2023-01-30T11:09:46.150Z,1.20
2023-01-30T11:12:15.491Z,0.49
2023-01-30T11:14:55.121Z,0.75
2023-01-30T11:17:32.273Z,1.26
2023-01-30T11:20:07.152Z,0.85
2023-01-30T11:22:37.817Z,0.76
2023-01-30T11:25:16.729Z,1.25
2023-01-30T11:27:45.609Z,1.17
2023-01-30T11:30:16.900Z,1.77
2023-01-30T11:32:47.828Z,0.89
2023-01-30T11:35:30.361Z,0.97
2023-01-30T11:38:14.508Z,1.01
2023-01-30T11:40:44.518Z,0.78
2023-01-30T11:43:14.755Z,1.33
2023-01-30T11:45:46.740Z,0.76
2023-01-30T11:48:33.798Z,1.51
2023-01-30T11:51:11.248Z,0.65
2023-01-30T11:53:43.031Z,0.69
2023-01-30T11:56:21.856Z,1.22
2023-01-30T11:59:01.354Z,0.93
2023-01-30T12:01:32.900Z,1.07
2023-01-30T12:04:02.568Z,0.93
2023-01-30T12:06:33.316Z,0.73
2023-01-30T12:09:02.099Z,0.88
2023-01-30T12:11:45.187Z,0.58
2023-01-30T12:14:33.872Z,0.73
2023-01-30T12:17:11.102Z,0.87
2023-01-30T12:20:26.013Z,1.37
2023-01-30T12:23:26.860Z,1.13
2023-01-30T12:26:02.824Z,1.17
2023-01-30T12:28:42.971Z,0.78
2023-01-30T12:31:15.592Z,0.97
2023-01-30T12:33:45.979Z,0.58
2023-01-30T12:36:24.292Z,1.18
2023-01-30T12:39:01.554Z,0.75
2023-01-30T12:41:53.214Z,0.99
2023-01-30T12:44:34.213Z,1.27
2023-01-30T12:47:18.588Z,0.93
2023-01-30T12:50:00.635Z,0.52
2023-01-30T12:52:58.915Z,0.40
2023-01-30T12:55:40.330Z,1.32
2023-01-30T12:58:16.584Z,0.74
2023-01-30T13:01:10.984Z,0.44
2023-01-30T13:03:58.222Z,0.58
2023-01-30T13:06:47.287Z,0.23
2023-01-30T13:09:34.808Z,0.56
2023-01-30T13:12:11.447Z,0.63
2023-01-30T13:14:46.031Z,0.96
2023-01-30T13:17:39.335Z,0.90
2023-01-30T13:20:20.919Z,0.60
2023-01-30T13:22:56.948Z,0.44
2023-01-30T13:25:34.049Z,0.72
2023-01-30T13:28:13.224Z,0.37
2023-01-30T13:30:47.443Z,0.95
2023-01-30T13:33:24.962Z,1.05
2023-01-30T13:36:03.921Z,0.97
2023-01-30T13:38:36.204Z,0.79
2023-01-30T13:41:08.388Z,1.08
2023-01-30T13:43:40.822Z,0.56
2023-01-30T13:46:12.999Z,0.81
2023-01-30T13:48:56.668Z,0.54
2023-01-30T13:51:41.656Z,0.67
2023-01-30T13:54:20.779Z,0.86
2023-01-30T13:56:56.941Z,0.68
2023-01-30T13:59:47.755Z,0.78
2023-01-30T14:02:24.148Z,0.79
2023-01-30T14:04:58.853Z,0.90
2023-01-30T14:07:33.077Z,0.28
2023-01-30T14:10:14.274Z,1.03
2023-01-30T14:12:48.001Z,0.18
2023-01-30T14:15:29.320Z,0.63
2023-01-30T14:18:05.484Z,0.44
2023-01-30T14:20:40.192Z,0.56
2023-01-30T14:23:23.323Z,0.67
2023-01-30T14:25:53.562Z,0.98
2023-01-30T14:28:49.552Z,0.97
2023-01-30T14:31:51.581Z,1.06
2023-01-30T14:34:47.399Z,1.11
2023-01-30T14:38:05.629Z,0.75
2023-01-30T14:41:10.867Z,0.83
2023-01-30T14:43:52.331Z,0.81
2023-01-30T14:46:54.405Z,1.29
2023-01-30T14:49:45.032Z,1.20
2023-01-30T14:52:36.141Z,0.89
2023-01-30T14:55:06.489Z,0.71
2023-01-30T14:57:35.214Z,0.68
2023-01-30T15:00:17.989Z,0.95
2023-01-30T15:02:53.214Z,1.01
2023-01-30T15:05:29.090Z,1.15
2023-01-30T15:08:07.875Z,0.80
2023-01-30T15:11:05.128Z,0.64
2023-01-30T15:14:03.692Z,0.87
2023-01-30T15:16:59.985Z,1.27
2023-01-30T15:19:52.941Z,1.35
2023-01-30T15:22:32.085Z,1.49
2023-01-30T15:25:32.058Z,0.88
2023-01-30T15:28:22.015Z,0.81
2023-01-30T15:31:04.110Z,1.10
2023-01-30T15:33:33.840Z,0.97
2023-01-30T15:36:19.176Z,0.91
2023-01-30T15:38:47.732Z,1.08
2023-01-30T15:41:18.126Z,1.26
2023-01-30T15:44:04.821Z,1.48
2023-01-30T15:46:42.721Z,0.69
2023-01-30T15:49:39.215Z,1.11
2023-01-30T15:52:16.211Z,1.28
2023-01-30T15:54:51.296Z,1.30
2023-01-30T15:57:27.069Z,1.43
2023-01-30T15:59:57.250Z,1.41
2023-01-30T16:02:31.556Z,1.35
2023-01-30T16:05:25.574Z,1.01
2023-01-30T16:07:56.884Z,1.17
2023-01-30T16:10:28.405Z,0.90
2023-01-30T16:13:02.550Z,1.11
2023-01-30T16:15:41.868Z,1.56
2023-01-30T16:18:25.776Z,1.45
2023-01-30T16:21:02.186Z,1.31
2023-01-30T16:23:35.620Z,0.95
2023-01-30T16:26:05.898Z,0.62
2023-01-30T16:28:36.068Z,0.98
2023-01-30T16:31:07.813Z,1.04
2023-01-30T16:33:37.331Z,1.83
2023-01-30T16:36:10.353Z,1.21
2023-01-30T16:38:45.575Z,1.43
2023-01-30T16:41:32.373Z,1.30
2023-01-30T16:44:19.616Z,1.55
2023-01-30T16:47:08.038Z,1.43
2023-01-30T16:49:49.115Z,1.48
2023-01-30T16:52:46.563Z,1.20
2023-01-30T16:55:21.747Z,1.32
2023-01-30T16:57:57.496Z,1.27
2023-01-30T17:00:34.590Z,1.44
2023-01-30T17:03:06.304Z,1.30
2023-01-30T17:05:40.657Z,1.11
2023-01-30T17:08:47.789Z,0.88
2023-01-30T17:12:25.884Z,1.61
2023-01-30T17:15:26.211Z,1.44
2023-01-30T17:17:59.863Z,1.40
2023-01-30T17:24:28.763Z,1.61
2023-01-30T17:27:18.541Z,1.29
2023-01-30T17:30:05.465Z,1.09
2023-01-30T17:32:40.284Z,1.38
2023-01-30T17:35:12.678Z,1.74
2023-01-30T17:37:59.660Z,1.67
2023-01-30T17:40:42.994Z,1.48
2023-01-30T17:43:13.257Z,1.56
2023-01-30T17:45:42.162Z,0.98
2023-01-30T17:48:19.818Z,1.47
2023-01-30T17:51:01.688Z,1.47
2023-01-30T17:56:24.271Z,1.34
2023-01-30T17:58:59.123Z,1.37
2023-01-30T18:01:33.398Z,1.31
2023-01-30T18:04:05.121Z,2.03
2023-01-30T18:06:49.948Z,1.55
2023-01-30T18:09:22.711Z,1.91
2023-01-30T18:12:02.703Z,1.30
2023-01-30T18:14:42.218Z,1.45
2023-01-30T18:17:14.971Z,1.08
2023-01-30T18:19:47.440Z,1.26
2023-01-30T18:22:20.676Z,1.04
2023-01-30T18:24:52.477Z,0.82
2023-01-30T18:27:22.703Z,1.10
2023-01-30T18:30:01.482Z,1.31
2023-01-30T18:32:35.361Z,1.47
2023-01-30T18:35:04.883Z,1.46
2023-01-30T18:37:34.878Z,0.95
2023-01-30T18:40:11.302Z,1.26
2023-01-30T18:42:41.572Z,1.58
2023-01-30T18:45:13.021Z,1.36
2023-01-30T18:47:41.736Z,0.99
2023-01-30T18:50:13.872Z,1.31
2023-01-30T18:52:54.804Z,1.18
2023-01-30T18:55:25.551Z,1.20
2023-01-30T18:57:55.865Z,1.29
2023-01-30T19:00:30.445Z,1.48
2023-01-30T19:02:59.182Z,1.61
2023-01-30T19:05:32.757Z,1.44
2023-01-30T19:08:04.156Z,1.35
2023-01-30T19:10:35.863Z,1.54
2023-01-30T19:13:28.703Z,1.48
2023-01-30T19:16:05.729Z,1.94
2023-01-30T19:18:34.206Z,1.41
2023-01-30T19:21:02.871Z,1.40
2023-01-30T19:23:34.126Z,1.85
2023-01-30T19:26:02.571Z,1.29
2023-01-30T19:28:41.696Z,1.53
2023-01-30T19:31:13.820Z,1.39
2023-01-30T19:33:46.077Z,1.30
2023-01-30T19:36:17.637Z,1.39
2023-01-30T19:38:48.700Z,1.11
2023-01-30T19:41:18.554Z,1.10
2023-01-30T19:43:49.952Z,0.75
2023-01-30T19:46:18.831Z,0.76
2023-01-30T19:48:48.603Z,0.62
2023-01-30T19:51:20.543Z,0.40
2023-01-30T19:53:53.841Z,1.17
2023-01-30T19:56:28.992Z,0.87
2023-01-30T19:58:58.835Z,0.69
2023-01-30T20:01:29.945Z,1.04
2023-01-30T20:03:59.144Z,0.70
2023-01-30T20:06:32.094Z,0.98
2023-01-30T20:09:07.160Z,0.67
2023-01-30T20:11:38.538Z,0.53
2023-01-30T20:14:07.487Z,0.91
2023-01-30T20:16:36.687Z,0.69
2023-01-30T20:19:07.774Z,1.08
2023-01-30T20:21:37.295Z,0.26
2023-01-30T20:24:08.391Z,0.23
2023-01-30T20:26:47.121Z,0.08
2023-01-30T20:29:18.130Z,0.02
2023-01-30T20:31:46.778Z,0.35
2023-01-30T20:34:17.231Z,0.32
2023-01-30T20:36:45.987Z,0.35
2023-01-30T20:39:17.138Z,0.18
2023-01-30T20:41:45.722Z,0.33
2023-01-30T20:44:18.621Z,0.55
2023-01-30T20:46:50.981Z,0.42
2023-01-30T20:49:21.625Z,0.28
2023-01-30T20:51:52.746Z,0.21
2023-01-30T20:54:24.396Z,0.72
2023-01-30T20:56:54.779Z,0.32
2023-01-30T20:59:27.446Z,0.95
2023-01-30T21:01:56.609Z,0.58
2023-01-30T21:04:25.597Z,0.39
2023-01-30T21:06:55.051Z,0.32
2023-01-30T21:09:27.255Z,0.74
2023-01-30T21:11:56.427Z,0.49
2023-01-30T21:14:27.281Z,0.60
2023-01-30T21:16:55.881Z,-0.27
2023-01-30T21:19:23.995Z,-0.07
2023-01-30T21:21:55.143Z,-0.23
2023-01-30T21:24:26.743Z,0.11
2023-01-30T21:26:57.094Z,0.17
2023-01-30T21:29:27.908Z,-0.04
2023-01-30T21:31:57.684Z,-0.28
2023-01-30T21:34:29.200Z,-0.19
2023-01-30T21:37:15.958Z,0.36
2023-01-30T21:40:06.193Z,0.12
2023-01-30T21:42:57.885Z,0.15
2023-01-30T21:45:27.016Z,-0.20
2023-01-30T21:47:55.509Z,0.02
2023-01-30T21:50:24.019Z,-0.11
2023-01-30T21:52:52.432Z,0.00
2023-01-30T21:55:22.536Z,0.23
2023-01-30T21:57:51.772Z,0.24
2023-01-30T22:00:20.440Z,-0.02
2023-01-30T22:02:50.702Z,-0.29
2023-01-30T22:05:19.456Z,-0.14
2023-01-30T22:07:49.910Z,0.20
2023-01-30T22:10:18.859Z,-0.27
2023-01-30T22:12:48.655Z,0.42
2023-01-30T22:15:17.677Z,0.11
2023-01-30T22:17:48.972Z,0.12
2023-01-30T22:20:18.910Z,0.05
2023-01-30T22:22:47.434Z,0.16
2023-01-30T22:25:15.950Z,0.38
2023-01-30T22:27:54.974Z,-0.10
2023-01-30T22:30:23.566Z,-0.22
2023-01-30T22:32:54.958Z,0.00
2023-01-30T22:35:23.395Z,0.24
2023-01-30T22:37:51.820Z,-0.25
2023-01-30T22:40:20.361Z,-0.12
2023-01-30T22:42:49.391Z,0.32
2023-01-30T22:45:22.239Z,0.20
2023-01-30T22:47:50.816Z,0.39
2023-01-30T22:50:19.368Z,0.03
2023-01-30T22:52:47.464Z,0.05
2023-01-30T22:55:16.021Z,0.25
2023-01-30T22:57:44.133Z,0.47
2023-01-30T23:00:13.106Z,-0.08
2023-01-30T23:02:43.005Z,0.28
2023-01-30T23:05:12.218Z,-0.01
2023-01-30T23:07:40.620Z,0.04
2023-01-30T23:10:10.409Z,-0.35
2023-01-30T23:12:56.316Z,-0.39
2023-01-30T23:15:24.792Z,-0.25
2023-01-30T23:18:11.854Z,-0.04
2023-01-30T23:20:40.357Z,0.09
2023-01-30T23:23:08.886Z,-0.23
2023-01-30T23:25:40.803Z,0.23
2023-01-30T23:28:10.029Z,-0.24
2023-01-30T23:30:39.098Z,-0.38
2023-01-30T23:33:09.196Z,-0.18
2023-01-30T23:35:37.832Z,-0.02
2023-01-30T23:38:20.124Z,0.25
2023-01-30T23:40:49.852Z,-0.14
2023-01-30T23:43:18.696Z,0.02
2023-01-30T23:45:47.163Z,0.06
2023-01-30T23:48:17.093Z,0.01
2023-01-30T23:50:45.565Z,-0.42
2023-01-30T23:53:14.003Z,-0.18
2023-01-30T23:55:55.245Z,-0.17
2023-01-30T23:58:23.937Z,-0.23
